Time;durP1;ratioP1;P1;durP2;ratioP2;P2;SDS_P1;SDS_P2;PMS_P1;PMS_P2;Temp;Humidity;BMP_temperature;BMP_pressure;BME280_temperature;BME280_humidity;BME280_pressure;Samples;Min_cycle;Max_cycle;Signal;HPM_P1;HPM_P2
2022/10/29 00:01:26;;;;;;;0.88;0.52;;;;;;;18.45;54.29;94228.78;4950901;28;20390;-86
2022/10/29 00:03:51;;;;;;;1.52;0.60;;;;;;;18.46;54.46;94226.78;4960574;28;20049;-86
2022/10/29 00:06:17;;;;;;;1.73;0.68;;;;;;;18.47;54.34;94231.03;4986241;28;20031;-86
2022/10/29 00:08:42;;;;;;;0.93;0.70;;;;;;;18.45;54.21;94231.50;4970086;28;20042;-86
2022/10/29 00:11:17;;;;;;;1.30;0.73;;;;;;;18.45;54.29;94236.22;4969080;28;20042;-85
2022/10/29 00:13:42;;;;;;;0.63;0.60;;;;;;;18.45;54.59;94236.97;4970669;28;20034;-86
2022/10/29 00:16:10;;;;;;;2.55;0.95;;;;;;;18.46;54.04;94230.28;4970076;28;20551;-85
2022/10/29 00:18:36;;;;;;;0.75;0.70;;;;;;;18.45;54.24;94236.22;4970372;28;20576;-86
2022/10/29 00:21:02;;;;;;;0.70;0.70;;;;;;;18.45;54.16;94228.03;4970278;28;20035;-85
2022/10/29 00:23:31;;;;;;;1.23;0.70;;;;;;;18.44;54.14;94234.72;4969201;28;20393;-86
2022/10/29 00:25:57;;;;;;;0.77;0.68;;;;;;;18.45;54.43;94233.50;4982282;28;20514;-86
2022/10/29 00:28:22;;;;;;;0.85;0.60;;;;;;;18.45;53.92;94236.22;4988634;28;20053;-87
2022/10/29 00:30:48;;;;;;;1.10;0.70;;;;;;;18.44;54.37;94235.47;5000685;28;20045;-87
2022/10/29 00:33:15;;;;;;;1.15;0.90;;;;;;;18.45;54.49;94233.50;5008206;28;20367;-85
2022/10/29 00:35:41;;;;;;;0.85;0.68;;;;;;;18.45;54.36;94230.75;5022612;28;20069;-86
2022/10/29 00:38:06;;;;;;;1.42;0.60;;;;;;;18.44;54.20;94232.75;5007894;28;20033;-85
2022/10/29 00:40:36;;;;;;;1.00;0.80;;;;;;;18.44;54.22;94240.97;5041163;28;20041;-85
2022/10/29 00:43:13;;;;;;;1.13;0.70;;;;;;;18.44;53.96;94242.94;5008997;28;20034;-85
2022/10/29 00:45:40;;;;;;;0.73;0.70;;;;;;;18.45;54.25;94241.72;4991103;28;20493;-86
2022/10/29 00:48:05;;;;;;;0.85;0.70;;;;;;;18.43;54.24;94236.72;4998795;28;20120;-85
2022/10/29 00:50:30;;;;;;;1.52;0.70;;;;;;;18.43;54.18;94239.47;5015568;28;20708;-86
2022/10/29 00:52:56;;;;;;;1.00;0.75;;;;;;;18.43;54.06;94233.22;5015623;28;20042;-86
2022/10/29 00:55:21;;;;;;;0.75;0.55;;;;;;;18.44;54.17;94234.72;5011356;28;20042;-86
2022/10/29 00:57:49;;;;;;;1.17;0.60;;;;;;;18.45;54.09;94225.28;4996176;28;20038;-86
2022/10/29 01:00:15;;;;;;;1.40;0.68;;;;;;;18.43;54.30;94220.28;4995010;28;20042;-86
2022/10/29 01:02:41;;;;;;;0.93;0.40;;;;;;;18.44;54.32;94226.53;5015187;28;20693;-87
2022/10/29 01:05:06;;;;;;;1.02;0.60;;;;;;;18.43;54.08;94225.03;5027678;28;20026;-86
2022/10/29 01:07:32;;;;;;;0.80;0.60;;;;;;;18.44;54.11;94221.03;4995868;28;20046;-86
2022/10/29 01:09:57;;;;;;;0.95;0.63;;;;;;;18.44;54.37;94215.56;5011900;28;20033;-85
2022/10/29 01:12:35;;;;;;;1.15;0.70;;;;;;;18.44;54.10;94213.59;5027597;28;20038;-85
2022/10/29 01:15:08;;;;;;;0.70;0.50;;;;;;;18.44;54.25;94221.78;5031955;28;20034;-85
2022/10/29 01:17:52;;;;;;;1.15;0.50;;;;;;;18.44;54.24;94218.31;5024066;28;20113;-87
2022/10/29 01:20:39;;;;;;;0.60;0.50;;;;;;;18.42;54.34;94213.31;5031093;28;20101;-86
2022/10/29 01:23:10;;;;;;;1.30;0.77;;;;;;;18.42;54.08;94207.84;5016199;28;20038;-87
2022/10/29 01:26:16;;;;;;;1.15;0.73;;;;;;;18.42;54.42;94207.09;5031222;28;20052;-87
2022/10/29 01:29:02;;;;;;;0.57;0.57;;;;;;;18.42;54.24;94213.31;5030806;28;20141;-87
2022/10/29 01:31:35;;;;;;;0.55;0.50;;;;;;;18.43;54.40;94219.53;5007899;28;20435;-86
2022/10/29 01:34:23;;;;;;;0.77;0.60;;;;;;;18.42;54.30;94213.31;4973283;28;20030;-86
2022/10/29 01:36:52;;;;;;;1.05;0.70;;;;;;;18.43;54.30;94227.75;5006288;28;20125;-87
2022/10/29 01:39:39;;;;;;;0.50;0.43;;;;;;;18.41;54.26;94208.34;4994761;28;20044;-86
2022/10/29 01:42:09;;;;;;;0.73;0.50;;;;;;;18.42;54.40;94205.09;5011361;28;20030;-87
2022/10/29 01:44:55;;;;;;;0.57;0.57;;;;;;;18.41;54.56;94213.81;4980200;28;20042;-84
2022/10/29 01:47:20;;;;;;;0.80;0.63;;;;;;;18.41;54.36;94216.56;4984923;28;20045;-87
2022/10/29 01:49:57;;;;;;;6.22;0.73;;;;;;;18.42;54.39;94218.03;4992593;28;20037;-85
2022/10/29 01:52:23;;;;;;;0.75;0.60;;;;;;;18.41;54.38;94209.09;5026518;28;20030;-85
2022/10/29 01:54:48;;;;;;;1.00;0.60;;;;;;;18.42;54.45;94207.09;4998755;28;20052;-86
2022/10/29 01:57:33;;;;;;;0.52;0.50;;;;;;;18.42;54.47;94207.09;5027625;28;20254;-87
2022/10/29 02:00:12;;;;;;;0.63;0.43;;;;;;;18.40;54.78;94204.84;5027598;28;20045;-86
2022/10/29 02:02:52;;;;;;;1.27;0.60;;;;;;;18.42;54.55;94201.63;5044387;28;20407;-86
2022/10/29 02:05:41;;;;;;;0.60;0.55;;;;;;;18.42;54.27;94198.88;5012455;28;20050;-86
2022/10/29 02:08:24;;;;;;;0.50;0.47;;;;;;;18.41;54.36;94197.38;5007278;28;20103;-86
2022/10/29 02:10:51;;;;;;;0.47;0.47;;;;;;;18.42;54.25;94205.09;4969419;28;20038;-86
2022/10/29 02:13:16;;;;;;;0.60;0.40;;;;;;;18.42;54.45;94199.63;5005005;28;20046;-85
2022/10/29 02:15:47;;;;;;;2.30;0.80;;;;;;;18.42;54.25;94199.63;5008483;28;20399;-85
2022/10/29 02:18:12;;;;;;;0.52;0.40;;;;;;;18.40;54.34;94199.38;5001246;28;20064;-86
2022/10/29 02:20:41;;;;;;;1.05;0.60;;;;;;;18.41;54.06;94184.44;4965008;28;20491;-86
2022/10/29 02:23:07;;;;;;;1.35;0.45;;;;;;;18.41;54.14;94197.38;4991845;28;20060;-86
2022/10/29 02:25:33;;;;;;;0.68;0.50;;;;;;;18.40;54.45;94201.38;5008476;28;20034;-87
2022/10/29 02:27:58;;;;;;;0.85;0.50;;;;;;;18.41;54.17;94192.66;5003808;28;20036;-85
2022/10/29 02:30:24;;;;;;;1.15;0.75;;;;;;;18.41;54.61;94198.13;5026970;28;20445;-85
2022/10/29 02:32:49;;;;;;;1.70;0.75;;;;;;;18.40;54.48;94188.44;5027778;28;20042;-87
2022/10/29 02:35:15;;;;;;;0.50;0.40;;;;;;;18.41;54.56;94202.88;4997932;28;20034;-86
2022/10/29 02:37:40;;;;;;;2.60;0.60;;;;;;;18.41;54.59;94194.66;5017346;28;20036;-87
2022/10/29 02:40:06;;;;;;;0.70;0.30;;;;;;;18.40;54.52;94198.66;4982622;28;20522;-86
2022/10/29 02:42:31;;;;;;;0.52;0.40;;;;;;;18.41;54.44;94200.13;5005024;28;20487;-84
2022/10/29 02:44:58;;;;;;;1.15;0.60;;;;;;;18.41;54.47;94195.41;5027021;28;20036;-85
2022/10/29 02:47:23;;;;;;;2.63;0.60;;;;;;;18.41;54.39;94202.88;5022024;28;20034;-86
2022/10/29 02:49:48;;;;;;;0.50;0.50;;;;;;;18.40;54.47;94204.13;4999429;28;20041;-86
2022/10/29 02:52:14;;;;;;;0.75;0.50;;;;;;;18.42;54.21;94201.63;5010144;28;20525;-85
2022/10/29 02:54:39;;;;;;;0.65;0.45;;;;;;;18.41;54.09;94208.34;5027005;28;20621;-87
2022/10/29 02:57:05;;;;;;;0.65;0.60;;;;;;;18.41;54.52;94208.34;5009949;28;20034;-86
2022/10/29 02:59:30;;;;;;;0.38;0.35;;;;;;;18.42;54.22;94198.88;5026660;28;20037;-85
2022/10/29 03:01:56;;;;;;;0.50;0.50;;;;;;;18.40;54.48;94198.66;5010561;28;20030;-86
2022/10/29 03:04:21;;;;;;;0.28;0.28;;;;;;;18.40;54.30;94188.44;5006719;28;20506;-86
2022/10/29 03:06:46;;;;;;;0.60;0.30;;;;;;;18.39;54.68;94197.16;5023471;28;20491;-86
2022/10/29 03:09:12;;;;;;;0.98;0.60;;;;;;;18.39;54.30;94194.41;5023185;28;20042;-87
2022/10/29 03:11:37;;;;;;;0.43;0.40;;;;;;;18.37;54.53;94189.44;4995877;28;20036;-86
2022/10/29 03:14:03;;;;;;;0.77;0.47;;;;;;;18.38;54.45;94184.72;5008864;28;20565;-86
2022/10/29 03:16:28;;;;;;;1.10;0.60;;;;;;;18.38;53.82;94188.19;5026658;28;20033;-87
2022/10/29 03:18:53;;;;;;;1.30;0.50;;;;;;;18.39;54.34;94186.22;5039290;28;20025;-85
2022/10/29 03:21:19;;;;;;;1.13;0.60;;;;;;;18.40;54.29;94187.69;5025701;28;20418;-86
2022/10/29 03:23:44;;;;;;;0.60;0.57;;;;;;;18.38;53.94;94182.72;5038478;28;20045;-86
2022/10/29 03:26:09;;;;;;;1.08;0.60;;;;;;;18.38;53.89;94182.72;4989891;28;20239;-85
2022/10/29 03:28:35;;;;;;;0.70;0.50;;;;;;;18.39;53.90;94180.72;4997400;28;20392;-87
2022/10/29 03:31:00;;;;;;;0.60;0.47;;;;;;;18.38;54.08;94179.97;5019364;28;20038;-86
2022/10/29 03:33:26;;;;;;;0.73;0.50;;;;;;;18.37;54.11;94183.97;5022754;28;20096;-85
2022/10/29 03:36:02;;;;;;;1.38;0.50;;;;;;;18.37;54.29;94178.47;5009197;28;20419;-85
2022/10/29 03:38:28;;;;;;;0.68;0.40;;;;;;;18.39;54.15;94172.53;4991502;28;20068;-86
2022/10/29 03:40:54;;;;;;;2.05;0.40;;;;;;;18.37;54.53;94167.53;4998403;28;20045;-85
2022/10/29 03:43:19;;;;;;;0.70;0.50;;;;;;;18.38;54.49;94168.28;5042629;28;20038;-86
2022/10/29 03:45:54;;;;;;;0.90;0.73;;;;;;;18.38;54.13;94173.75;5042624;28;20080;-87
2022/10/29 03:48:20;;;;;;;0.50;0.40;;;;;;;18.39;53.73;94175.25;5024445;28;20071;-86
2022/10/29 03:50:59;;;;;;;0.65;0.60;;;;;;;18.37;54.25;94175.75;5025923;28;20041;-86
2022/10/29 03:53:24;;;;;;;0.85;0.43;;;;;;;18.37;53.77;94178.47;5013499;28;20042;-86
2022/10/29 03:55:53;;;;;;;0.63;0.43;;;;;;;18.38;54.14;94181.97;4990169;28;20050;-86
2022/10/29 03:58:19;;;;;;;0.40;0.20;;;;;;;18.37;54.29;94177.72;5022286;28;20033;-86
2022/10/29 04:00:59;;;;;;;0.82;0.50;;;;;;;18.38;54.02;94188.19;5008792;28;20053;-85
2022/10/29 04:03:25;;;;;;;0.47;0.47;;;;;;;18.39;54.44;94178.00;5010369;28;20059;-87
2022/10/29 04:05:50;;;;;;;0.65;0.50;;;;;;;18.36;54.23;94187.94;5001840;28;20045;-85
2022/10/29 04:08:16;;;;;;;0.95;0.50;;;;;;;18.38;53.97;94190.19;4989338;28;20045;-85
2022/10/29 04:10:45;;;;;;;0.70;0.50;;;;;;;18.37;54.37;94177.72;5023570;28;20050;-87
2022/10/29 04:13:10;;;;;;;0.50;0.30;;;;;;;18.37;54.02;94170.28;5021614;28;20496;-86
2022/10/29 04:15:36;;;;;;;1.00;0.50;;;;;;;18.37;54.18;94173.00;5006313;28;20046;-85
2022/10/29 04:18:01;;;;;;;0.65;0.65;;;;;;;18.36;54.41;94182.47;5014630;28;20045;-85
2022/10/29 04:20:27;;;;;;;0.50;0.30;;;;;;;18.36;54.31;94176.97;5005352;28;20034;-86
2022/10/29 04:22:52;;;;;;;0.70;0.52;;;;;;;18.38;54.24;94182.72;4989404;28;20049;-86
2022/10/29 04:25:17;;;;;;;0.73;0.40;;;;;;;18.37;54.18;94172.25;5020340;28;20099;-85
2022/10/29 04:27:43;;;;;;;0.50;0.30;;;;;;;18.37;53.91;94164.06;4989836;28;20053;-86
2022/10/29 04:30:09;;;;;;;0.73;0.40;;;;;;;18.37;54.48;94175.00;4988472;28;20042;-85
2022/10/29 04:32:34;;;;;;;1.83;0.65;;;;;;;18.35;54.30;94170.00;4989599;28;20057;-85
2022/10/29 04:34:59;;;;;;;0.82;0.40;;;;;;;18.37;53.94;94164.06;5000508;28;20045;-86
2022/10/29 04:37:27;;;;;;;0.65;0.40;;;;;;;18.36;53.81;94174.25;5007448;28;20038;-87
2022/10/29 04:39:52;;;;;;;0.38;0.35;;;;;;;18.36;54.06;94171.50;5041762;28;20055;-85
2022/10/29 04:42:18;;;;;;;0.68;0.55;;;;;;;18.36;54.21;94166.03;5009365;28;20396;-85
2022/10/29 04:44:43;;;;;;;0.38;0.38;;;;;;;18.37;54.28;94173.00;5007196;28;20042;-87
2022/10/29 04:47:08;;;;;;;0.80;0.60;;;;;;;18.35;54.29;94172.75;5019531;28;20045;-86
2022/10/29 04:49:34;;;;;;;1.13;0.60;;;;;;;18.35;54.17;94170.00;5024043;28;20446;-87
2022/10/29 04:51:59;;;;;;;0.98;0.50;;;;;;;18.35;53.99;94172.75;5021989;28;20057;-86
2022/10/29 04:54:25;;;;;;;0.57;0.40;;;;;;;18.36;54.31;94179.72;4989526;28;20573;-85
2022/10/29 04:56:50;;;;;;;0.30;0.30;;;;;;;18.35;53.93;94169.25;5005612;28;20050;-86
2022/10/29 04:59:15;;;;;;;0.88;0.40;;;;;;;18.35;54.34;94172.00;5005784;28;20046;-87
2022/10/29 05:01:41;;;;;;;1.45;0.43;;;;;;;18.36;54.25;94187.19;5040987;28;20042;-85
2022/10/29 05:04:07;;;;;;;0.30;0.30;;;;;;;18.36;54.29;94181.72;5009280;28;20431;-86
2022/10/29 05:06:32;;;;;;;0.50;0.30;;;;;;;18.37;54.37;94175.00;5005882;28;20054;-86
2022/10/29 05:08:57;;;;;;;0.63;0.43;;;;;;;18.36;54.08;94168.78;4999571;28;20396;-86
2022/10/29 05:11:23;;;;;;;0.20;0.20;;;;;;;18.35;54.31;94182.94;5005555;28;20132;-86
2022/10/29 05:13:48;;;;;;;1.83;0.50;;;;;;;18.35;54.18;94178.22;5012257;28;20046;-85
2022/10/29 05:16:14;;;;;;;0.55;0.45;;;;;;;18.34;54.09;94174.00;4988740;28;20034;-85
2022/10/29 05:18:39;;;;;;;0.50;0.50;;;;;;;18.36;53.97;94176.97;5004077;28;20088;-86
2022/10/29 05:21:04;;;;;;;1.25;0.60;;;;;;;18.35;54.12;94172.75;5026199;28;20044;-86
2022/10/29 05:23:30;;;;;;;1.35;0.40;;;;;;;18.35;54.10;94169.25;5014975;28;20570;-86
2022/10/29 05:25:55;;;;;;;0.70;0.40;;;;;;;18.34;54.16;94168.50;5003059;28;20046;-86
2022/10/29 05:28:21;;;;;;;1.05;0.60;;;;;;;18.33;54.46;94167.03;5008366;28;20085;-86
2022/10/29 05:30:50;;;;;;;1.38;0.35;;;;;;;18.32;53.82;94173.72;5007849;28;20233;-86
2022/10/29 05:33:18;;;;;;;0.60;0.43;;;;;;;18.33;54.37;94161.53;4992120;28;20056;-87
2022/10/29 05:35:43;;;;;;;1.17;0.40;;;;;;;18.34;54.40;94174.00;4992962;28;20040;-87
2022/10/29 05:38:09;;;;;;;0.85;0.52;;;;;;;18.36;54.08;94165.28;5009169;28;20025;-85
2022/10/29 05:40:34;;;;;;;0.70;0.40;;;;;;;18.36;54.17;94173.50;5028663;28;20072;-86
2022/10/29 05:42:59;;;;;;;0.52;0.50;;;;;;;18.34;53.90;94175.97;5008971;28;20359;-87
2022/10/29 05:45:25;;;;;;;0.90;0.55;;;;;;;18.33;54.12;94177.97;4995141;28;20064;-87
2022/10/29 05:47:57;;;;;;;0.20;0.20;;;;;;;18.33;54.14;94169.00;5011917;28;20499;-85
2022/10/29 05:50:23;;;;;;;1.13;0.40;;;;;;;18.35;54.32;94172.00;5008852;28;20080;-86
2022/10/29 05:52:58;;;;;;;0.40;0.40;;;;;;;18.32;54.42;94175.72;5006804;28;20077;-86
2022/10/29 05:55:23;;;;;;;0.80;0.43;;;;;;;18.34;54.29;94186.94;5028033;28;20055;-85
2022/10/29 05:57:48;;;;;;;1.70;0.40;;;;;;;18.33;54.28;94183.44;5027852;28;20046;-87
2022/10/29 06:00:14;;;;;;;1.10;0.40;;;;;;;18.33;54.19;94186.19;5010150;28;20182;-86
2022/10/29 06:02:43;;;;;;;0.30;0.30;;;;;;;18.33;54.10;94186.19;5010408;28;20407;-87
2022/10/29 06:05:08;;;;;;;0.60;0.50;;;;;;;18.34;54.06;94179.47;5028155;28;20041;-85
2022/10/29 06:07:34;;;;;;;0.40;0.32;;;;;;;18.34;54.20;94181.44;5012162;28;20088;-86
2022/10/29 06:09:59;;;;;;;0.55;0.40;;;;;;;18.32;54.12;94181.94;5024044;28;20045;-86
2022/10/29 06:12:24;;;;;;;0.40;0.30;;;;;;;18.32;54.44;94181.19;5025776;28;20041;-87
2022/10/29 06:14:50;;;;;;;0.45;0.30;;;;;;;18.35;54.19;94188.44;5027851;28;20487;-86
2022/10/29 06:17:15;;;;;;;0.40;0.40;;;;;;;18.32;54.12;94190.16;5010821;28;20038;-86
2022/10/29 06:19:42;;;;;;;0.40;0.40;;;;;;;18.33;53.93;94186.19;5008830;28;20041;-86
2022/10/29 06:22:07;;;;;;;0.50;0.50;;;;;;;18.34;54.46;94184.94;4992054;28;20117;-87
2022/10/29 06:24:32;;;;;;;0.60;0.55;;;;;;;18.35;53.79;94182.94;5003396;28;20728;-86
2022/10/29 06:26:58;;;;;;;0.40;0.30;;;;;;;18.34;54.10;94190.41;5028107;28;20033;-86
2022/10/29 06:29:24;;;;;;;0.38;0.32;;;;;;;18.34;54.43;94192.41;5041466;28;20453;-87
2022/10/29 06:31:49;;;;;;;0.45;0.30;;;;;;;18.33;54.12;94194.38;5027727;28;20037;-86
2022/10/29 06:34:15;;;;;;;0.32;0.32;;;;;;;18.34;54.17;94195.88;5021593;28;20435;-86
2022/10/29 06:36:40;;;;;;;0.90;0.47;;;;;;;18.35;54.06;94185.69;5008399;28;20041;-87
2022/10/29 06:39:06;;;;;;;1.02;0.30;;;;;;;18.36;54.31;94204.34;4981327;28;20452;-87
2022/10/29 06:41:31;;;;;;;0.43;0.40;;;;;;;18.35;54.39;94199.38;4999770;28;20052;-86
2022/10/29 06:43:57;;;;;;;0.40;0.30;;;;;;;18.36;53.97;94203.59;5010969;28;20037;-86
2022/10/29 06:46:22;;;;;;;0.30;0.30;;;;;;;18.35;53.86;94211.06;5027151;28;20060;-86
2022/10/29 06:48:47;;;;;;;0.30;0.30;;;;;;;18.36;54.15;94212.56;5026666;28;20372;-86
2022/10/29 06:51:13;;;;;;;0.40;0.32;;;;;;;18.38;53.88;94209.34;5020639;28;20044;-85
2022/10/29 06:53:38;;;;;;;0.55;0.45;;;;;;;18.37;54.34;94214.06;5015630;28;20038;-87
2022/10/29 06:56:03;;;;;;;0.30;0.30;;;;;;;18.36;54.18;94209.09;4990835;28;20625;-87
2022/10/29 06:58:29;;;;;;;0.20;0.20;;;;;;;18.36;54.14;94207.09;5007617;28;20038;-87
2022/10/29 07:00:54;;;;;;;0.40;0.40;;;;;;;18.34;54.30;94215.03;5007544;28;20050;-86
2022/10/29 07:03:20;;;;;;;0.30;0.30;;;;;;;18.36;54.03;94215.31;5018430;28;20045;-86
2022/10/29 07:05:46;;;;;;;0.50;0.30;;;;;;;18.35;54.34;94218.53;4991394;28;20050;-87
2022/10/29 07:08:11;;;;;;;0.50;0.32;;;;;;;18.36;54.29;94218.03;4990326;28;20038;-87
2022/10/29 07:10:37;;;;;;;0.30;0.30;;;;;;;18.37;54.20;94216.06;4990792;28;20168;-86
2022/10/29 07:13:02;;;;;;;1.65;0.40;;;;;;;18.37;54.34;94219.53;5011137;28;20482;-87
2022/10/29 07:15:28;;;;;;;0.52;0.30;;;;;;;18.35;54.27;94224.75;5026160;28;20045;-86
2022/10/29 07:18:03;;;;;;;1.20;0.73;;;;;;;18.38;54.37;94226.53;5039638;28;20506;-87
2022/10/29 07:20:30;;;;;;;2.22;0.40;;;;;;;18.38;54.09;94217.56;5006743;28;20076;-85
2022/10/29 07:22:56;;;;;;;0.88;0.60;;;;;;;18.39;53.97;94224.53;4991102;28;20046;-86
2022/10/29 07:25:22;;;;;;;2.17;0.50;;;;;;;18.37;54.08;94222.28;5042167;28;20037;-87
2022/10/29 07:27:47;;;;;;;0.40;0.38;;;;;;;18.37;54.45;94222.28;5010838;28;20037;-86
2022/10/29 07:30:13;;;;;;;1.17;0.40;;;;;;;18.37;54.35;94225.03;5009138;28;20049;-87
2022/10/29 07:32:38;;;;;;;0.40;0.38;;;;;;;18.37;54.20;94224.28;5027606;28;20493;-86
2022/10/29 07:35:04;;;;;;;3.88;0.63;;;;;;;18.38;54.33;94231.25;5017188;28;20029;-86
2022/10/29 07:37:29;;;;;;;0.43;0.32;;;;;;;18.37;54.40;94227.75;5019794;28;20046;-85
2022/10/29 07:39:57;;;;;;;1.00;0.40;;;;;;;18.38;54.25;94231.25;5006327;28;20093;-87
2022/10/29 07:42:23;;;;;;;0.30;0.30;;;;;;;18.39;54.41;94227.28;4989913;28;20045;-86
2022/10/29 07:44:48;;;;;;;0.50;0.43;;;;;;;18.38;54.40;94232.00;5002992;28;20038;-85
2022/10/29 07:47:14;;;;;;;0.38;0.38;;;;;;;18.39;54.17;94238.97;5025523;28;20088;-86
2022/10/29 07:49:39;;;;;;;0.30;0.30;;;;;;;18.38;54.36;94233.97;5016385;28;20119;-86
2022/10/29 07:52:04;;;;;;;0.52;0.30;;;;;;;18.39;54.10;94244.44;5008611;28;20060;-86
2022/10/29 07:54:30;;;;;;;0.30;0.30;;;;;;;18.39;54.03;94238.97;5024083;28;20550;-86
2022/10/29 07:56:55;;;;;;;8.30;0.80;;;;;;;18.39;54.35;94230.75;4992474;28;20056;-86
2022/10/29 07:59:21;;;;;;;2.47;0.63;;;;;;;18.44;54.36;94232.75;5007554;28;20029;-85
2022/10/29 08:01:46;;;;;;;1.15;0.40;;;;;;;18.45;54.33;94222.53;5016880;28;20417;-85
2022/10/29 08:04:12;;;;;;;0.32;0.30;;;;;;;18.46;53.98;94224.03;4994272;28;20781;-85
2022/10/29 08:06:37;;;;;;;0.50;0.30;;;;;;;18.48;54.03;94230.53;4992257;28;20044;-87
2022/10/29 08:09:03;;;;;;;0.32;0.25;;;;;;;18.46;54.06;94233.00;4990290;28;20045;-87
2022/10/29 08:11:31;;;;;;;2.72;0.40;;;;;;;18.47;53.96;94231.78;5024380;28;20048;-86
2022/10/29 08:13:57;;;;;;;0.70;0.30;;;;;;;18.46;54.08;94226.78;5007547;28;20045;-86
2022/10/29 08:16:24;;;;;;;0.50;0.30;;;;;;;18.47;53.96;94239.22;4987553;28;20073;-85
2022/10/29 08:18:49;;;;;;;0.60;0.20;;;;;;;18.44;54.13;94232.75;5000767;28;20041;-86
2022/10/29 08:21:15;;;;;;;1.30;0.60;;;;;;;18.46;54.02;94226.78;5023569;28;20515;-86
2022/10/29 08:23:40;;;;;;;0.47;0.40;;;;;;;18.46;53.66;94222.06;5006427;28;20045;-86
2022/10/29 08:26:06;;;;;;;0.40;0.40;;;;;;;18.46;54.23;94224.03;4998155;28;20587;-86
2022/10/29 08:28:31;;;;;;;0.50;0.40;;;;;;;18.46;54.22;94230.28;5025474;28;20050;-86
2022/10/29 08:30:56;;;;;;;1.33;0.50;;;;;;;18.48;54.03;94238.00;4973035;28;20092;-86
2022/10/29 08:33:22;;;;;;;0.65;0.50;;;;;;;18.46;54.03;94235.75;4989164;28;20038;-86
2022/10/29 08:35:47;;;;;;;0.93;0.63;;;;;;;18.47;54.24;94234.50;5007453;28;20557;-85
2022/10/29 08:38:13;;;;;;;5.30;0.80;;;;;;;18.48;54.30;94227.78;5015415;28;20133;-87
2022/10/29 08:40:57;;;;;;;41.03;3.78;;;;;;;18.50;53.96;94233.53;5007909;28;20046;-87
2022/10/29 08:43:38;;;;;;;26.45;2.20;;;;;;;18.48;54.31;94235.25;5026294;28;20378;-87
2022/10/29 08:46:03;;;;;;;6.20;1.27;;;;;;;18.48;53.96;94241.47;5041350;28;20049;-86
2022/10/29 08:48:45;;;;;;;11.65;3.08;;;;;;;18.48;54.21;94238.75;5009161;28;20034;-86
2022/10/29 08:51:27;;;;;;;14.63;5.85;;;;;;;18.47;54.21;94242.72;5040186;28;20060;-86
2022/10/29 08:53:54;;;;;;;17.38;6.50;;;;;;;18.47;54.37;94239.97;5009507;28;20136;-87
2022/10/29 08:56:24;;;;;;;22.52;8.00;;;;;;;18.46;54.22;94248.69;5006535;28;20034;-86
2022/10/29 08:58:58;;;;;;;20.85;8.80;;;;;;;18.46;54.21;94243.97;4989712;28;20185;-86
2022/10/29 09:01:23;;;;;;;21.75;9.10;;;;;;;18.46;54.04;94229.53;5005118;28;20062;-86
2022/10/29 09:03:49;;;;;;;20.83;8.88;;;;;;;18.49;54.47;94239.50;5006935;28;20542;-86
2022/10/29 09:06:20;;;;;;;32.42;10.48;;;;;;;18.47;54.23;94242.72;4982067;28;20650;-86
2022/10/29 09:09:11;;;;;;;28.52;9.13;;;;;;;18.47;54.22;94248.19;5026522;28;20716;-88
2022/10/29 09:12:01;;;;;;;28.38;7.72;;;;;;;18.46;54.38;94246.69;5009313;28;20050;-86
2022/10/29 09:14:54;;;;;;;21.65;6.88;;;;;;;18.47;54.05;94237.25;5021437;28;20422;-88
2022/10/29 09:17:30;;;;;;;24.05;7.22;;;;;;;18.48;54.24;94232.50;5029547;28;20445;-86
2022/10/29 09:20:33;;;;;;;29.02;7.05;;;;;;;18.47;54.21;94244.72;5021185;28;20495;-87
2022/10/29 09:23:17;;;;;;;15.38;6.22;;;;;;;18.47;54.14;94236.50;5009159;28;20046;-85
2022/10/29 09:25:50;;;;;;;25.10;6.30;;;;;;;18.47;54.10;94242.72;5009439;28;20042;-84
2022/10/29 09:28:21;;;;;;;21.98;6.40;;;;;;;18.48;54.10;94238.75;5008656;28;20511;-86
2022/10/29 09:30:49;;;;;;;;;;;;;;;18.52;54.22;94240.50;5027477;28;20054;-85
2022/10/29 09:33:17;;;;;;;37.90;7.72;;;;;;;18.50;54.40;94239.00;5009289;28;20023;-86
2022/10/29 09:35:44;;;;;;;29.23;7.80;;;;;;;18.53;54.31;94245.50;4993013;28;20041;-87
2022/10/29 09:38:13;;;;;;;25.25;7.10;;;;;;;18.50;54.12;94247.22;5010499;28;20038;-86
2022/10/29 09:40:39;;;;;;;40.53;9.07;;;;;;;18.52;54.15;94241.25;5045372;28;20037;-86
2022/10/29 09:43:18;;;;;;;33.05;10.13;;;;;;;18.53;53.83;94245.50;5028168;28;20495;-86
2022/10/29 09:45:53;;;;;;;45.35;12.70;;;;;;;18.53;54.38;94247.47;4992771;28;20440;-86
2022/10/29 09:48:26;;;;;;;32.08;13.05;;;;;;;18.54;54.62;94244.25;5024463;28;20561;-85
2022/10/29 09:50:56;;;;;;;33.15;12.70;;;;;;;18.54;54.36;94249.72;5019019;28;20056;-86
2022/10/29 09:53:22;;;;;;;40.08;12.48;;;;;;;18.54;54.26;94247.00;5024706;28;20034;-85
2022/10/29 09:55:53;;;;;;;36.75;12.88;;;;;;;18.53;54.39;94250.97;5019381;28;20065;-85
2022/10/29 09:58:22;;;;;;;40.70;13.60;;;;;;;18.54;54.44;94243.50;5024323;28;20128;-85
2022/10/29 10:00:47;;;;;;;29.23;12.63;;;;;;;18.54;54.64;94238.03;5028116;28;20041;-86
2022/10/29 10:03:17;;;;;;;32.78;13.57;;;;;;;18.54;54.40;94243.50;5013961;28;20443;-85
2022/10/29 10:06:05;;;;;;;34.67;13.45;;;;;;;18.54;54.53;94238.78;5020978;28;20048;-86
2022/10/29 10:08:31;;;;;;;42.85;13.57;;;;;;;18.54;54.40;94238.03;5028113;28;20057;-86
2022/10/29 10:11:03;;;;;;;43.75;14.30;;;;;;;18.52;54.41;94224.81;4997618;28;20046;-85
2022/10/29 10:13:30;;;;;;;34.90;14.35;;;;;;;18.55;54.35;94225.84;4975953;28;20518;-85
2022/10/29 10:15:59;;;;;;;38.42;14.73;;;;;;;18.52;54.79;94219.34;5011983;28;20448;-86
2022/10/29 10:18:30;;;;;;;35.22;14.75;;;;;;;18.52;54.67;94221.34;5000169;28;20136;-85
2022/10/29 10:21:02;;;;;;;44.28;15.80;;;;;;;18.53;54.54;94220.09;5029701;28;20052;-85
2022/10/29 10:23:43;;;;;;;35.42;14.52;;;;;;;18.53;54.59;94220.84;5028827;28;20049;-86
2022/10/29 10:26:34;;;;;;;35.97;15.13;;;;;;;18.53;54.60;94207.16;5023983;28;20042;-86
2022/10/29 10:29:10;;;;;;;38.30;16.00;;;;;;;18.52;54.48;94213.88;5007882;28;20125;-85
2022/10/29 10:31:36;;;;;;;30.70;15.98;;;;;;;18.55;54.64;94214.88;5008180;28;20050;-86
2022/10/29 10:34:19;;;;;;;32.00;15.75;;;;;;;18.53;54.53;94196.22;4994350;28;20026;-85
2022/10/29 10:36:47;;;;;;;41.03;14.82;;;;;;;18.54;54.35;94202.44;5042757;28;20096;-86
2022/10/29 10:39:38;;;;;;;41.83;15.55;;;;;;;18.52;54.78;94202.16;5010219;28;20038;-85
2022/10/29 10:42:23;;;;;;;32.55;15.45;;;;;;;18.54;54.78;94191.47;5013084;28;20085;-86
2022/10/29 10:45:04;;;;;;;35.63;15.07;;;;;;;18.53;54.35;94198.19;5007361;28;20073;-85
2022/10/29 10:47:31;;;;;;;38.13;16.23;;;;;;;18.54;54.73;94205.16;4992033;28;20045;-86
2022/10/29 10:50:15;;;;;;;31.13;14.90;;;;;;;18.54;54.67;94199.69;4991512;28;20115;-86
2022/10/29 10:52:41;;;;;;;30.67;14.90;;;;;;;18.56;55.05;94199.94;5024084;28;20101;-87
2022/10/29 10:55:09;;;;;;;25.98;13.20;;;;;;;18.55;54.59;94193.72;5007271;28;20041;-87
2022/10/29 10:57:41;;;;;;;30.25;13.40;;;;;;;18.54;54.69;94199.69;5007840;28;20046;-86
2022/10/29 11:00:16;;;;;;;28.55;15.05;;;;;;;18.54;54.56;94197.69;5006864;28;20038;-85
2022/10/29 11:03:00;;;;;;;25.55;13.18;;;;;;;18.55;54.54;94199.19;5012710;28;20044;-86
2022/10/29 11:05:31;;;;;;;46.42;15.88;;;;;;;18.57;54.40;94193.97;5007588;28;20046;-86
2022/10/29 11:08:18;;;;;;;40.33;13.98;;;;;;;18.56;54.32;94186.25;5007456;28;20521;-86
2022/10/29 11:10:51;;;;;;;36.67;13.90;;;;;;;18.57;54.57;94190.50;5040216;28;20053;-86
2022/10/29 11:13:19;;;;;;;35.33;12.52;;;;;;;18.58;54.79;94186.53;4994122;28;20087;-86
2022/10/29 11:15:49;;;;;;;31.35;13.45;;;;;;;18.58;54.57;94176.31;5008882;28;20030;-86
2022/10/29 11:18:23;;;;;;;41.83;13.40;;;;;;;18.59;54.68;94179.81;5022012;28;20041;-87
2022/10/29 11:21:11;;;;;;;25.67;12.85;;;;;;;18.59;54.68;94186.06;5023868;28;20504;-87
2022/10/29 11:23:39;;;;;;;19.63;11.80;;;;;;;18.59;54.55;94186.06;5007364;28;20045;-85
2022/10/29 11:26:06;;;;;;;25.67;12.98;;;;;;;18.59;54.65;94172.38;5017176;28;20048;-85
2022/10/29 11:28:51;;;;;;;30.42;12.70;;;;;;;18.59;54.42;94174.31;4990598;28;20680;-85
2022/10/29 11:31:55;;;;;;;30.40;13.13;;;;;;;18.60;54.38;94167.63;5022387;28;20044;-86
2022/10/29 11:34:34;;;;;;;36.50;13.93;;;;;;;18.60;54.54;94170.38;4933617;28;20069;-87
2022/10/29 11:37:04;;;;;;;39.65;15.32;;;;;;;18.61;54.47;94178.09;4948346;28;20529;-85
2022/10/29 11:39:44;;;;;;;35.42;13.85;;;;;;;18.59;54.43;94179.81;4962266;28;20079;-86